Time;durP1;ratioP1;P1;durP2;ratioP2;P2;SDS_P1;SDS_P2;PMS_P1;PMS_P2;Temp;Humidity;BMP_temperature;BMP_pressure;BME280_temperature;BME280_humidity;BME280_pressure;Samples;Min_cycle;Max_cycle;Signal;HPM_P1;HPM_P2
2023/06/19 00:02:25;;;;;;;14.13;9.60;;;24.10;59.00;;;;;;5105282;28;20753;-81
2023/06/19 00:04:53;;;;;;;11.27;8.60;;;24.10;59.10;;;;;;5105603;28;20453;-82
2023/06/19 00:07:21;;;;;;;15.23;10.00;;;24.20;59.10;;;;;;5107437;28;20463;-81
2023/06/19 00:09:49;;;;;;;12.27;9.70;;;24.20;59.40;;;;;;5109901;28;20564;-81
2023/06/19 00:12:17;;;;;;;13.13;9.20;;;24.10;59.60;;;;;;5106460;28;20448;-81
2023/06/19 00:14:47;;;;;;;13.63;9.13;;;24.10;59.70;;;;;;5111280;28;21377;-81
2023/06/19 00:17:16;;;;;;;10.87;8.80;;;24.10;60.00;;;;;;5107740;28;20515;-81
2023/06/19 00:19:44;;;;;;;11.17;8.93;;;24.10;60.00;;;;;;5087455;28;20452;-81
2023/06/19 00:22:12;;;;;;;14.60;10.70;;;24.10;60.20;;;;;;5109227;28;20454;-81
2023/06/19 00:24:40;;;;;;;13.43;9.20;;;24.00;60.30;;;;;;5106795;28;20973;-81
2023/06/19 00:27:08;;;;;;;12.10;9.30;;;24.00;60.50;;;;;;5105980;28;20475;-80
2023/06/19 00:29:36;;;;;;;11.20;9.67;;;24.00;60.70;;;;;;5110984;28;20535;-81
2023/06/19 00:32:06;;;;;;;13.80;10.40;;;23.90;61.00;;;;;;5092718;28;20474;-81
2023/06/19 00:34:36;;;;;;;13.70;9.07;;;23.90;61.10;;;;;;5107061;28;20984;-81
2023/06/19 00:37:06;;;;;;;11.97;9.00;;;23.90;61.20;;;;;;5103681;28;20455;-81
2023/06/19 00:39:34;;;;;;;12.03;10.03;;;23.80;61.40;;;;;;5106995;28;20448;-83
2023/06/19 00:42:02;;;;;;;13.93;9.70;;;23.80;61.40;;;;;;5108197;28;21423;-84
2023/06/19 00:44:30;;;;;;;13.60;10.50;;;23.80;61.50;;;;;;5100768;28;20448;-82
2023/06/19 00:47:00;;;;;;;12.60;9.57;;;23.70;61.50;;;;;;5086991;28;20480;-83
2023/06/19 00:49:31;;;;;;;13.70;10.00;;;23.70;61.50;;;;;;5085422;28;20533;-84
2023/06/19 00:51:59;;;;;;;12.43;9.83;;;23.60;61.60;;;;;;5089295;28;20459;-82
2023/06/19 00:54:27;;;;;;;13.50;10.13;;;23.60;61.60;;;;;;5107511;28;20436;-80
2023/06/19 00:56:55;;;;;;;13.33;10.37;;;23.60;61.60;;;;;;5090354;28;20464;-82
2023/06/19 00:59:24;;;;;;;12.97;10.03;;;23.60;61.70;;;;;;5090323;28;20502;-82
2023/06/19 01:01:52;;;;;;;17.27;11.00;;;23.60;61.60;;;;;;5090734;28;20481;-82
2023/06/19 01:04:20;;;;;;;11.77;9.97;;;23.50;61.60;;;;;;5085387;28;20502;-81
2023/06/19 01:06:57;;;;;;;13.00;10.40;;;23.50;61.60;;;;;;5106987;28;20463;-83
2023/06/19 01:09:30;;;;;;;16.67;10.40;;;23.50;61.60;;;;;;5105508;28;20555;-82
2023/06/19 01:12:05;;;;;;;12.30;10.67;;;23.50;61.50;;;;;;5105816;28;20448;-82
2023/06/19 01:14:40;;;;;;;11.70;9.40;;;23.40;61.60;;;;;;5098127;28;20449;-82
2023/06/19 01:17:08;;;;;;;12.43;10.03;;;23.40;61.60;;;;;;5091408;28;21047;-81
2023/06/19 01:19:36;;;;;;;12.50;10.10;;;23.40;61.50;;;;;;5108320;28;20450;-82
2023/06/19 01:22:06;;;;;;;12.40;9.80;;;23.40;61.50;;;;;;5091285;28;20542;-82
2023/06/19 01:24:36;;;;;;;13.13;10.03;;;23.30;61.60;;;;;;5089072;28;20559;-81
2023/06/19 01:27:05;;;;;;;14.97;9.93;;;23.30;61.70;;;;;;5107598;28;20459;-81
2023/06/19 01:29:34;;;;;;;12.90;10.00;;;23.30;61.70;;;;;;5083975;28;20535;-81
2023/06/19 01:32:10;;;;;;;11.80;10.20;;;23.20;61.80;;;;;;5082866;28;20836;-82
2023/06/19 01:34:44;;;;;;;15.93;10.37;;;23.20;62.00;;;;;;5088597;28;20464;-81
2023/06/19 01:37:13;;;;;;;15.53;10.83;;;23.20;62.00;;;;;;5098771;28;20825;-82
2023/06/19 01:39:43;;;;;;;12.60;9.80;;;23.20;62.10;;;;;;5091501;28;20444;-82
2023/06/19 01:42:11;;;;;;;11.30;9.20;;;23.10;62.10;;;;;;5089739;28;20559;-82
2023/06/19 01:44:40;;;;;;;12.50;10.40;;;23.10;62.20;;;;;;5101561;28;21040;-82
2023/06/19 01:47:10;;;;;;;14.00;11.47;;;23.00;62.30;;;;;;5100136;28;20546;-81
2023/06/19 01:49:39;;;;;;;13.27;10.70;;;23.00;62.30;;;;;;5087857;28;20813;-82
2023/06/19 01:52:07;;;;;;;14.00;10.60;;;22.90;62.40;;;;;;5088843;28;20452;-81
2023/06/19 01:54:36;;;;;;;14.13;10.53;;;22.90;62.40;;;;;;5092839;28;20456;-81
2023/06/19 01:57:05;;;;;;;13.50;10.07;;;22.90;62.40;;;;;;5102790;28;20945;-81
2023/06/19 01:59:33;;;;;;;14.40;9.90;;;22.80;62.40;;;;;;5092979;28;20452;-81
2023/06/19 02:02:03;;;;;;;14.13;11.00;;;22.80;62.50;;;;;;5084643;28;20468;-81
2023/06/19 02:04:32;;;;;;;15.23;10.40;;;22.70;62.50;;;;;;5105290;28;20866;-82
2023/06/19 02:07:00;;;;;;;15.43;11.80;;;22.70;62.60;;;;;;5104351;28;20458;-82
2023/06/19 02:09:28;;;;;;;15.60;11.40;;;22.70;62.70;;;;;;5090753;28;20851;-82
2023/06/19 02:11:57;;;;;;;14.97;11.27;;;22.60;62.70;;;;;;5093401;28;20558;-81
2023/06/19 02:14:25;;;;;;;13.97;10.40;;;22.60;62.80;;;;;;5090558;28;21059;-81
2023/06/19 02:16:53;;;;;;;15.83;10.93;;;22.50;63.00;;;;;;5082225;28;20456;-81
2023/06/19 02:19:21;;;;;;;12.47;10.40;;;22.50;63.00;;;;;;5106997;28;21253;-81
2023/06/19 02:21:49;;;;;;;14.37;11.50;;;22.40;62.90;;;;;;5079508;28;20456;-81
2023/06/19 02:24:20;;;;;;;15.40;10.63;;;22.40;63.00;;;;;;5098858;28;20544;-81
2023/06/19 02:26:50;;;;;;;17.03;11.90;;;22.30;63.00;;;;;;5090133;28;20559;-81
2023/06/19 02:29:20;;;;;;;13.10;11.07;;;22.20;63.10;;;;;;5089076;28;20480;-81
2023/06/19 02:31:49;;;;;;;15.60;11.40;;;22.20;63.20;;;;;;5082638;28;20961;-81
2023/06/19 02:34:17;;;;;;;14.23;11.77;;;22.10;63.30;;;;;;5096017;28;20470;-81
2023/06/19 02:36:47;;;;;;;15.33;12.00;;;22.00;63.40;;;;;;5082452;28;20977;-82
2023/06/19 02:39:16;;;;;;;13.40;10.43;;;22.00;63.50;;;;;;5108309;28;20530;-81
2023/06/19 02:41:46;;;;;;;15.40;12.70;;;21.90;63.60;;;;;;5093338;28;20455;-82
2023/06/19 02:44:15;;;;;;;13.27;10.03;;;21.90;63.70;;;;;;5100585;28;20516;-81
2023/06/19 02:46:45;;;;;;;16.07;12.00;;;21.80;63.80;;;;;;5113448;28;20451;-81
2023/06/19 02:49:13;;;;;;;16.10;11.17;;;21.80;63.80;;;;;;5095602;28;20874;-80
2023/06/19 02:51:45;;;;;;;16.70;12.40;;;21.80;63.80;;;;;;5104166;28;20444;-81
2023/06/19 02:54:13;;;;;;;15.00;11.17;;;21.70;64.00;;;;;;5096389;28;20447;-81
2023/06/19 02:56:41;;;;;;;15.83;11.10;;;21.70;64.00;;;;;;5111564;28;20452;-82
2023/06/19 02:59:09;;;;;;;15.77;11.67;;;21.60;64.00;;;;;;5089655;28;20451;-81
2023/06/19 03:01:37;;;;;;;15.50;11.70;;;21.60;64.10;;;;;;5096404;28;20464;-82
2023/06/19 03:04:06;;;;;;;13.30;11.00;;;21.60;64.10;;;;;;5098717;28;20527;-82
2023/06/19 03:06:39;;;;;;;14.40;11.07;;;21.60;64.20;;;;;;5088044;28;20828;-82
2023/06/19 03:09:12;;;;;;;13.50;11.50;;;21.70;64.20;;;;;;5101592;28;20464;-82
2023/06/19 03:11:40;;;;;;;13.50;10.60;;;21.70;64.30;;;;;;5092522;28;20454;-81
2023/06/19 03:14:09;;;;;;;14.07;11.17;;;21.60;64.40;;;;;;5094225;28;20548;-82
2023/06/19 03:16:38;;;;;;;12.80;10.90;;;21.60;64.50;;;;;;5110349;28;20474;-82
2023/06/19 03:19:07;;;;;;;12.80;11.50;;;21.60;64.60;;;;;;5097187;28;20475;-82
2023/06/19 03:21:36;;;;;;;13.83;11.27;;;21.60;64.70;;;;;;5089565;28;20448;-82
2023/06/19 03:24:05;;;;;;;16.33;10.90;;;21.50;64.80;;;;;;5102377;28;20455;-83
2023/06/19 03:26:34;;;;;;;15.20;11.87;;;21.50;64.90;;;;;;5094501;28;20495;-82
2023/06/19 03:29:03;;;;;;;15.13;12.20;;;21.50;65.00;;;;;;5114322;28;20972;-82
2023/06/19 03:31:46;;;;;;;13.60;11.10;;;21.50;65.00;;;;;;5097722;28;20463;-82
2023/06/19 03:34:17;;;;;;;17.00;11.83;;;21.50;65.00;;;;;;5095997;28;20463;-82
2023/06/19 03:36:45;;;;;;;12.90;10.93;;;21.50;65.10;;;;;;5090564;28;20969;-81
2023/06/19 03:39:14;;;;;;;13.90;11.90;;;21.50;65.10;;;;;;5091353;28;20439;-81
2023/06/19 03:41:46;;;;;;;14.97;12.00;;;21.50;65.20;;;;;;5087828;28;20470;-81
2023/06/19 03:44:15;;;;;;;14.73;11.33;;;21.50;65.30;;;;;;5093013;28;20464;-81
2023/06/19 03:46:44;;;;;;;13.60;11.10;;;21.50;65.30;;;;;;5097628;28;20570;-81
2023/06/19 03:49:13;;;;;;;14.60;11.47;;;21.60;65.30;;;;;;5093836;28;20460;-82
2023/06/19 03:51:42;;;;;;;16.00;11.40;;;21.60;65.30;;;;;;5109032;28;20953;-82
2023/06/19 03:54:10;;;;;;;20.33;11.97;;;21.60;65.30;;;;;;5082088;28;20544;-82
2023/06/19 03:56:39;;;;;;;13.30;10.80;;;21.60;65.40;;;;;;5107029;28;20459;-81
2023/06/19 03:59:07;;;;;;;13.77;11.57;;;21.60;65.40;;;;;;5085913;28;20848;-81
2023/06/19 04:01:35;;;;;;;17.17;11.70;;;21.70;65.40;;;;;;5092991;28;20478;-81
2023/06/19 04:04:03;;;;;;;17.07;10.97;;;21.70;65.50;;;;;;5106858;28;20451;-85
2023/06/19 04:06:31;;;;;;;15.67;12.07;;;21.70;65.50;;;;;;5106842;28;20941;-84
2023/06/19 04:09:00;;;;;;;16.33;11.53;;;21.70;65.40;;;;;;5086821;28;20805;-81
2023/06/19 04:11:28;;;;;;;19.00;11.80;;;21.80;65.40;;;;;;5105131;28;20531;-84
2023/06/19 04:13:57;;;;;;;14.33;12.00;;;21.80;65.50;;;;;;5093954;28;20555;-81
2023/06/19 04:16:25;;;;;;;14.20;11.77;;;21.80;65.50;;;;;;5084967;28;20457;-81
2023/06/19 04:18:53;;;;;;;13.90;11.17;;;21.80;65.60;;;;;;5092092;28;20448;-82
2023/06/19 04:21:21;;;;;;;15.07;10.90;;;21.90;65.60;;;;;;5080446;28;20492;-81
2023/06/19 04:23:49;;;;;;;16.03;11.20;;;21.90;65.70;;;;;;5090488;28;20526;-81
2023/06/19 04:26:21;;;;;;;13.53;10.87;;;21.90;65.70;;;;;;5090384;28;20459;-81
2023/06/19 04:28:49;;;;;;;14.07;10.57;;;21.90;65.70;;;;;;5089929;28;20467;-81
2023/06/19 04:31:18;;;;;;;12.93;10.63;;;21.90;65.70;;;;;;5086640;28;20476;-82
2023/06/19 04:33:46;;;;;;;16.80;10.83;;;22.00;65.70;;;;;;5111422;28;20523;-81
2023/06/19 04:36:14;;;;;;;15.87;11.43;;;22.00;65.80;;;;;;5103850;28;21312;-81
2023/06/19 04:38:44;;;;;;;12.73;10.63;;;22.10;65.90;;;;;;5099608;28;20539;-81
2023/06/19 04:41:12;;;;;;;15.80;11.70;;;22.10;65.90;;;;;;5091371;28;20531;-81
2023/06/19 04:43:41;;;;;;;16.57;11.70;;;22.20;66.10;;;;;;5105147;28;21219;-81
2023/06/19 04:46:09;;;;;;;14.57;11.03;;;22.20;66.30;;;;;;5106045;28;20460;-81
2023/06/19 04:48:39;;;;;;;16.20;12.43;;;22.30;66.40;;;;;;5106911;28;20454;-81
2023/06/19 04:51:07;;;;;;;16.67;11.87;;;22.30;66.50;;;;;;5080180;28;21208;-82
2023/06/19 04:53:35;;;;;;;13.27;10.50;;;22.30;66.40;;;;;;5092459;28;21026;-81
2023/06/19 04:56:03;;;;;;;14.80;11.70;;;22.30;66.50;;;;;;5084170;28;20445;-81
2023/06/19 04:58:31;;;;;;;12.93;10.90;;;22.30;66.40;;;;;;5079106;28;20941;-81
2023/06/19 05:01:02;;;;;;;12.93;10.60;;;22.40;66.40;;;;;;5102447;28;20500;-81
2023/06/19 05:03:30;;;;;;;15.33;11.57;;;22.40;66.40;;;;;;5082696;28;20472;-81
2023/06/19 05:05:57;;;;;;;13.00;10.30;;;22.50;66.40;;;;;;5088597;28;20453;-82
2023/06/19 05:08:32;;;;;;;15.53;12.43;;;22.50;66.40;;;;;;5093009;28;20457;-81
2023/06/19 05:11:00;;;;;;;13.50;10.60;;;22.60;66.40;;;;;;5099261;28;21059;-81
2023/06/19 05:13:28;;;;;;;11.43;9.77;;;22.60;66.30;;;;;;5092556;28;20463;-81
2023/06/19 05:15:56;;;;;;;12.97;10.57;;;22.70;66.30;;;;;;5103537;28;20453;-81
2023/06/19 05:18:26;;;;;;;12.50;9.60;;;22.80;66.20;;;;;;5089289;28;20517;-81
2023/06/19 05:20:56;;;;;;;14.73;10.17;;;22.80;66.00;;;;;;5103295;28;20448;-81
2023/06/19 05:23:24;;;;;;;11.97;9.50;;;22.90;66.00;;;;;;5090392;28;20465;-81
2023/06/19 05:25:53;;;;;;;15.00;10.10;;;22.90;65.90;;;;;;5091211;28;20961;-82
2023/06/19 05:28:21;;;;;;;12.93;10.20;;;23.00;65.80;;;;;;5096762;28;20564;-81
2023/06/19 05:30:49;;;;;;;12.23;10.10;;;23.00;65.70;;;;;;5085293;28;20469;-82
2023/06/19 05:33:19;;;;;;;15.80;10.23;;;23.10;65.70;;;;;;5092562;28;20456;-81
2023/06/19 05:35:52;;;;;;;16.20;10.80;;;23.20;65.90;;;;;;5092314;28;20459;-82
2023/06/19 05:38:20;;;;;;;12.87;9.60;;;23.20;66.00;;;;;;5104181;28;20520;-81
2023/06/19 05:40:48;;;;;;;17.23;9.47;;;23.30;65.90;;;;;;5102720;28;20934;-81
2023/06/19 05:43:16;;;;;;;11.90;9.20;;;23.30;65.90;;;;;;5084877;28;20458;-82
2023/06/19 05:45:44;;;;;;;12.20;9.43;;;23.40;65.80;;;;;;5091401;28;20847;-81
2023/06/19 05:48:12;;;;;;;18.00;8.97;;;23.50;65.80;;;;;;5088965;28;20460;-81
2023/06/19 05:50:40;;;;;;;10.87;8.47;;;23.60;65.70;;;;;;5080889;28;20461;-81
2023/06/19 05:53:09;;;;;;;11.63;8.10;;;23.80;66.00;;;;;;5101055;28;20447;-82
2023/06/19 05:55:39;;;;;;;12.13;7.63;;;24.20;66.00;;;;;;5101847;28;20456;-81
2023/06/19 05:58:07;;;;;;;12.70;8.20;;;24.70;65.30;;;;;;5099082;28;20461;-79
2023/06/19 06:00:35;;;;;;;13.10;8.00;;;25.10;64.70;;;;;;5086229;28;20493;-80
2023/06/19 06:03:03;;;;;;;9.90;7.67;;;25.20;64.30;;;;;;5102016;28;20458;-80
2023/06/19 06:05:31;;;;;;;11.57;7.97;;;25.10;63.90;;;;;;5109528;28;20467;-80
2023/06/19 06:08:00;;;;;;;11.40;7.20;;;25.00;63.90;;;;;;5104951;28;20462;-81
2023/06/19 06:10:29;;;;;;;10.93;7.57;;;24.90;63.90;;;;;;5100707;28;20466;-80
2023/06/19 06:12:57;;;;;;;10.03;7.60;;;24.80;64.00;;;;;;5107004;28;20802;-80
2023/06/19 06:15:25;;;;;;;9.90;6.73;;;24.70;64.10;;;;;;5090714;28;20488;-80
2023/06/19 06:17:53;;;;;;;9.47;6.87;;;24.70;64.30;;;;;;5101060;28;20459;-80
2023/06/19 06:20:21;;;;;;;11.30;7.47;;;24.70;64.40;;;;;;5086399;28;20457;-80
2023/06/19 06:22:49;;;;;;;10.20;6.40;;;24.80;64.20;;;;;;5107708;27;20553;-81
2023/06/19 06:25:17;;;;;;;10.20;6.87;;;24.80;64.20;;;;;;5089462;28;20832;-81
2023/06/19 06:27:46;;;;;;;9.20;6.90;;;24.80;64.20;;;;;;5084097;28;20962;-81
2023/06/19 06:30:15;;;;;;;9.40;6.40;;;24.90;64.30;;;;;;5098270;28;20443;-79
2023/06/19 06:32:47;;;;;;;8.67;6.13;;;24.90;64.50;;;;;;5096419;28;20533;-81
2023/06/19 06:35:16;;;;;;;9.67;5.60;;;25.00;64.70;;;;;;5089449;28;20825;-79
2023/06/19 06:37:46;;;;;;;11.07;6.40;;;25.10;64.60;;;;;;5108100;28;20458;-81
2023/06/19 06:40:14;;;;;;;9.87;6.43;;;25.30;64.50;;;;;;5105657;28;20513;-79
2023/06/19 06:42:42;;;;;;;10.67;6.77;;;25.40;64.30;;;;;;5097682;28;20930;-81
2023/06/19 06:45:12;;;;;;;8.20;5.43;;;25.40;64.00;;;;;;5099992;28;20454;-80
2023/06/19 06:47:40;;;;;;;9.80;6.17;;;25.50;63.90;;;;;;5084145;28;20452;-81
2023/06/19 06:50:10;;;;;;;8.87;5.77;;;25.40;63.80;;;;;;5108690;28;20452;-81
2023/06/19 06:52:38;;;;;;;11.13;6.57;;;25.40;63.70;;;;;;5087784;28;20533;-80
2023/06/19 06:55:08;;;;;;;8.20;5.90;;;25.50;63.80;;;;;;5090210;28;20826;-81
2023/06/19 06:57:36;;;;;;;9.60;6.23;;;25.50;63.90;;;;;;5096290;28;20462;-80
2023/06/19 07:00:07;;;;;;;8.00;5.30;;;25.50;64.00;;;;;;5100306;28;20536;-80
2023/06/19 07:02:36;;;;;;;11.93;6.20;;;25.50;64.10;;;;;;5100061;28;20503;-81
2023/06/19 07:05:04;;;;;;;10.80;6.17;;;25.60;64.10;;;;;;5103453;28;20455;-80
2023/06/19 07:07:32;;;;;;;7.97;5.17;;;25.60;64.30;;;;;;5104954;28;20555;-79
2023/06/19 07:10:00;;;;;;;9.60;5.17;;;25.60;64.30;;;;;;5101362;28;20459;-80
2023/06/19 07:12:28;;;;;;;8.10;5.53;;;25.60;64.40;;;;;;5104629;28;20555;-79
2023/06/19 07:14:56;;;;;;;9.77;5.30;;;25.60;64.50;;;;;;5105628;28;20534;-79
2023/06/19 07:17:24;;;;;;;16.77;6.13;;;25.60;64.50;;;;;;5107655;28;20499;-81
2023/06/19 07:19:54;;;;;;;9.33;5.73;;;25.60;64.50;;;;;;5088339;28;20455;-81
2023/06/19 07:22:22;;;;;;;7.50;5.43;;;25.70;64.50;;;;;;5113022;28;20852;-81
2023/06/19 07:24:50;;;;;;;7.73;4.67;;;25.70;64.50;;;;;;5094824;28;21013;-79
2023/06/19 07:27:18;;;;;;;8.33;5.57;;;25.70;64.60;;;;;;5106100;28;20456;-79
2023/06/19 07:29:46;;;;;;;10.57;5.70;;;25.70;64.70;;;;;;5109264;28;20452;-79
2023/06/19 07:32:14;;;;;;;9.70;5.40;;;25.70;64.50;;;;;;5106913;28;20843;-78
2023/06/19 07:34:42;;;;;;;8.27;5.67;;;25.70;64.70;;;;;;5103927;28;20490;-78
2023/06/19 07:37:17;;;;;;;8.90;5.20;;;25.70;64.80;;;;;;5103049;28;20554;-79
2023/06/19 07:39:45;;;;;;;10.10;5.73;;;25.70;64.90;;;;;;5104856;28;20553;-78
2023/06/19 07:42:15;;;;;;;11.30;6.23;;;25.70;64.90;;;;;;5107682;28;20595;-78
2023/06/19 07:44:43;;;;;;;8.90;5.50;;;25.70;65.00;;;;;;5111743;28;20839;-79
2023/06/19 07:47:12;;;;;;;10.90;5.73;;;25.70;65.10;;;;;;5105476;28;20538;-77
2023/06/19 07:49:40;;;;;;;11.60;5.57;;;25.70;65.00;;;;;;5106613;28;20462;-77
2023/06/19 07:52:10;;;;;;;12.80;5.90;;;25.70;65.00;;;;;;5102445;28;20477;-77
2023/06/19 07:54:52;;;;;;;11.80;5.13;;;25.80;65.00;;;;;;5110505;28;20487;-78
2023/06/19 07:57:20;;;;;;;8.43;5.87;;;25.80;64.90;;;;;;5109411;28;20448;-78
2023/06/19 07:59:48;;;;;;;8.40;5.90;;;25.80;64.80;;;;;;5106413;28;20447;-77
2023/06/19 08:02:17;;;;;;;9.43;5.53;;;25.90;65.00;;;;;;5090644;28;20471;-78
2023/06/19 08:04:45;;;;;;;11.90;6.73;;;25.90;65.10;;;;;;5110333;28;20458;-78
2023/06/19 08:07:15;;;;;;;11.20;5.80;;;25.90;65.20;;;;;;5107735;28;20448;-78
2023/06/19 08:09:44;;;;;;;10.40;6.03;;;26.00;65.20;;;;;;5095903;28;20981;-79
2023/06/19 08:12:16;;;;;;;9.37;5.67;;;26.00;65.30;;;;;;5106629;28;20478;-78
2023/06/19 08:14:44;;;;;;;8.30;5.70;;;26.10;65.30;;;;;;5110052;28;20475;-78
2023/06/19 08:17:12;;;;;;;14.47;6.47;;;26.10;65.10;;;;;;5107567;28;20443;-78
2023/06/19 08:24:05;;;;;;;10.03;6.53;;;26.20;65.10;;;;;;5102074;28;20426;-78
2023/06/19 08:26:35;;;;;;;7.53;5.50;;;26.20;65.20;;;;;;5090435;28;20771;-78
2023/06/19 08:29:03;;;;;;;9.37;6.43;;;26.20;65.20;;;;;;5103768;28;20439;-78
2023/06/19 08:31:31;;;;;;;8.43;5.83;;;26.30;65.30;;;;;;5105011;28;20485;-78
2023/06/19 08:33:59;;;;;;;16.47;7.60;;;26.30;65.20;;;;;;5108499;28;20455;-78
2023/06/19 08:36:27;;;;;;;10.50;6.40;;;26.30;65.30;;;;;;5103485;28;20505;-78
2023/06/19 08:38:56;;;;;;;9.10;6.03;;;26.40;65.30;;;;;;5081057;28;20452;-77
2023/06/19 08:41:24;;;;;;;12.20;6.53;;;26.40;65.30;;;;;;5104834;28;20452;-78
2023/06/19 08:43:53;;;;;;;9.97;6.40;;;26.40;65.30;;;;;;5107718;28;20513;-78
2023/06/19 08:46:21;;;;;;;10.53;5.90;;;26.40;65.30;;;;;;5105164;28;20934;-78
2023/06/19 08:48:51;;;;;;;11.23;6.00;;;26.40;65.40;;;;;;5089157;28;21063;-78
2023/06/19 08:51:19;;;;;;;10.90;7.10;;;26.40;65.50;;;;;;5105008;28;21092;-78
2023/06/19 08:53:50;;;;;;;10.53;6.67;;;26.50;65.50;;;;;;5102470;28;20455;-78
2023/06/19 08:56:18;;;;;;;8.43;6.20;;;26.50;65.50;;;;;;5106291;28;20447;-77
2023/06/19 08:58:46;;;;;;;7.63;5.77;;;26.60;65.50;;;;;;5108305;28;20551;-79
2023/06/19 09:01:20;;;;;;;7.83;6.10;;;26.50;65.40;;;;;;5092582;28;21058;-78
2023/06/19 09:03:51;;;;;;;9.80;6.20;;;26.60;65.40;;;;;;5104780;28;20467;-79
2023/06/19 09:06:21;;;;;;;10.83;6.23;;;26.50;65.40;;;;;;5102079;28;20498;-79
2023/06/19 09:08:59;;;;;;;11.50;6.77;;;26.50;65.40;;;;;;5106859;28;20960;-78
2023/06/19 09:11:27;;;;;;;8.80;5.67;;;26.60;65.60;;;;;;5108022;28;20451;-78
2023/06/19 09:13:58;;;;;;;10.20;6.27;;;26.60;65.60;;;;;;5105354;28;20484;-78
2023/06/19 09:16:37;;;;;;;7.50;5.73;;;26.60;65.50;;;;;;5087468;28;20457;-78
2023/06/19 09:19:05;;;;;;;11.23;6.93;;;26.60;65.40;;;;;;5096427;28;20436;-78
2023/06/19 09:21:36;;;;;;;9.80;6.23;;;26.60;65.40;;;;;;5101864;28;20467;-78
2023/06/19 09:24:07;;;;;;;14.37;7.17;;;26.50;65.50;;;;;;5089013;28;20457;-77
2023/06/19 09:26:36;;;;;;;12.17;7.20;;;26.60;65.50;;;;;;5090597;28;20452;-78
2023/06/19 09:29:15;;;;;;;11.30;7.17;;;26.60;65.50;;;;;;5089755;28;20459;-78
2023/06/19 09:31:49;;;;;;;12.93;6.57;;;26.70;65.60;;;;;;5107492;28;20547;-77
2023/06/19 09:34:17;;;;;;;10.30;7.63;;;26.60;65.60;;;;;;5105726;28;20532;-77
2023/06/19 09:36:46;;;;;;;11.03;7.37;;;26.70;65.50;;;;;;5108806;28;21183;-78
2023/06/19 09:39:16;;;;;;;10.53;7.10;;;26.70;65.50;;;;;;5106978;28;20439;-78
2023/06/19 09:41:47;;;;;;;8.97;6.87;;;26.70;65.60;;;;;;5094184;28;20461;-79
2023/06/19 09:44:16;;;;;;;8.73;6.30;;;26.80;65.60;;;;;;5103597;28;20443;-78
2023/06/19 09:46:49;;;;;;;11.13;7.00;;;26.80;65.70;;;;;;5107293;28;20475;-77
2023/06/19 09:49:19;;;;;;;13.30;8.00;;;26.80;65.80;;;;;;5106598;28;20444;-79
2023/06/19 09:51:47;;;;;;;15.80;7.93;;;26.80;65.90;;;;;;5083650;28;20458;-78
2023/06/19 09:54:16;;;;;;;12.33;7.10;;;26.90;65.80;;;;;;5102741;28;20664;-78
2023/06/19 09:56:45;;;;;;;26.53;9.77;;;26.90;65.80;;;;;;5106356;28;21400;-78
2023/06/19 09:59:13;;;;;;;18.70;7.67;;;26.90;65.70;;;;;;5103217;28;20459;-78
2023/06/19 10:01:42;;;;;;;15.33;7.63;;;26.90;65.70;;;;;;5106568;28;20470;-77
2023/06/19 10:04:13;;;;;;;9.10;7.00;;;26.90;65.90;;;;;;5102990;28;20452;-78
2023/06/19 10:06:45;;;;;;;8.73;6.83;;;26.90;66.00;;;;;;5102160;28;20468;-78
2023/06/19 10:09:17;;;;;;;12.50;7.47;;;26.90;66.10;;;;;;5102123;28;20497;-79
2023/06/19 10:11:51;;;;;;;10.13;7.43;;;27.00;66.10;;;;;;5107566;28;20446;-79
2023/06/19 10:14:20;;;;;;;13.07;7.57;;;27.00;66.10;;;;;;5104598;28;20487;-78
2023/06/19 10:16:48;;;;;;;10.17;7.63;;;27.10;66.00;;;;;;5106251;28;20454;-79
2023/06/19 10:19:22;;;;;;;14.87;7.60;;;27.10;66.00;;;;;;5104861;28;20444;-78
2023/06/19 10:21:52;;;;;;;12.67;9.00;;;27.10;66.10;;;;;;5091363;28;20503;-78
2023/06/19 10:24:21;;;;;;;11.10;7.43;;;27.10;66.10;;;;;;5082817;28;20997;-78
2023/06/19 10:27:00;;;;;;;9.33;7.30;;;27.10;66.20;;;;;;5100484;28;20478;-80
2023/06/19 10:29:39;;;;;;;9.37;7.23;;;27.20;66.30;;;;;;5100801;28;20514;-79
2023/06/19 10:32:09;;;;;;;11.47;8.10;;;27.20;66.30;;;;;;5094947;28;21076;-78
2023/06/19 10:34:38;;;;;;;10.47;8.20;;;27.20;66.10;;;;;;5085042;28;20969;-79
2023/06/19 10:37:06;;;;;;;14.30;7.37;;;27.20;66.20;;;;;;5095530;28;20486;-77
2023/06/19 10:39:34;;;;;;;11.93;7.90;;;27.20;66.30;;;;;;5107262;28;20550;-78
2023/06/19 10:42:07;;;;;;;10.17;7.30;;;27.30;66.30;;;;;;5110176;28;20451;-79
2023/06/19 10:44:35;;;;;;;11.17;7.57;;;27.40;66.20;;;;;;5101720;28;20448;-78
2023/06/19 10:47:03;;;;;;;10.10;7.93;;;27.40;66.30;;;;;;5101900;28;20443;-78
2023/06/19 10:49:32;;;;;;;11.00;7.47;;;27.50;66.10;;;;;;5103550;28;20459;-78
2023/06/19 10:52:02;;;;;;;10.47;8.30;;;27.50;66.10;;;;;;5106990;28;20455;-79
2023/06/19 10:54:31;;;;;;;12.77;8.83;;;27.50;66.10;;;;;;5106539;28;20468;-80
2023/06/19 10:57:02;;;;;;;11.90;7.60;;;27.50;66.10;;;;;;5101899;28;20539;-77
2023/06/19 10:59:30;;;;;;;11.80;7.47;;;27.50;66.30;;;;;;5102086;28;20449;-79
2023/06/19 11:01:58;;;;;;;10.03;7.80;;;27.50;66.10;;;;;;5103364;28;20467;-79
2023/06/19 11:04:26;;;;;;;10.53;8.00;;;27.50;65.80;;;;;;5091486;28;21191;-79
2023/06/19 11:06:54;;;;;;;13.50;8.27;;;27.50;65.80;;;;;;5107164;28;20452;-79
2023/06/19 11:09:24;;;;;;;12.20;8.33;;;27.50;65.70;;;;;;5110347;28;20691;-78
2023/06/19 11:11:52;;;;;;;10.27;8.40;;;27.50;65.80;;;;;;5109563;28;20562;-79
2023/06/19 11:14:21;;;;;;;12.30;8.63;;;27.50;65.80;;;;;;5108226;28;20480;-78
2023/06/19 11:16:49;;;;;;;11.60;8.87;;;27.50;65.80;;;;;;5101858;28;20482;-79
2023/06/19 11:19:19;;;;;;;11.80;7.83;;;27.50;65.90;;;;;;5105607;28;20478;-78
2023/06/19 11:21:48;;;;;;;11.00;8.40;;;27.50;65.90;;;;;;5110144;28;20469;-80
2023/06/19 11:24:17;;;;;;;13.90;8.20;;;27.50;66.00;;;;;;5104939;28;20444;-79
2023/06/19 11:26:50;;;;;;;12.53;8.50;;;27.60;65.90;;;;;;5110169;28;20531;-79
2023/06/19 11:29:21;;;;;;;11.63;8.33;;;27.50;65.90;;;;;;5114601;28;20515;-80
2023/06/19 11:31:51;;;;;;;11.23;8.63;;;27.60;65.70;;;;;;5110863;28;20551;-78
2023/06/19 11:34:19;;;;;;;9.37;7.63;;;27.60;65.70;;;;;;5094237;28;20511;-79
2023/06/19 11:36:51;;;;;;;12.60;7.43;;;27.60;65.60;;;;;;5092073;28;20452;-78
2023/06/19 11:39:20;;;;;;;9.57;7.60;;;27.70;65.50;;;;;;5091849;28;20826;-79
2023/06/19 11:41:50;;;;;;;9.87;7.73;;;27.70;65.40;;;;;;5091127;28;20957;-79
2023/06/19 11:44:22;;;;;;;16.73;8.60;;;27.80;65.40;;;;;;5108209;28;20462;-78
2023/06/19 11:46:50;;;;;;;11.90;8.50;;;27.80;65.40;;;;;;5091356;28;20450;-80
2023/06/19 11:49:19;;;;;;;9.33;7.30;;;27.90;65.20;;;;;;5091836;28;20451;-80
2023/06/19 11:51:48;;;;;;;11.87;8.60;;;27.90;65.20;;;;;;5092282;28;20509;-79
2023/06/19 11:54:16;;;;;;;11.20;8.03;;;27.90;65.30;;;;;;5109806;28;20505;-79
2023/06/19 11:56:44;;;;;;;10.80;8.10;;;28.00;65.30;;;;;;5111739;28;20459;-78
2023/06/19 11:59:14;;;;;;;10.57;8.50;;;28.00;65.10;;;;;;5106834;28;20464;-79
2023/06/19 12:01:42;;;;;;;11.70;8.20;;;28.00;65.10;;;;;;5102108;28;20467;-77
2023/06/19 12:04:10;;;;;;;10.13;7.83;;;28.10;65.00;;;;;;5108168;28;21255;-78
2023/06/19 12:06:38;;;;;;;11.03;8.10;;;28.10;65.00;;;;;;5108194;28;20448;-78
2023/06/19 12:09:06;;;;;;;10.43;7.80;;;28.10;64.80;;;;;;5108911;28;20487;-80
2023/06/19 12:11:34;;;;;;;13.77;8.50;;;28.10;64.80;;;;;;5103159;28;20561;-80
2023/06/19 12:14:02;;;;;;;10.90;8.00;;;28.10;64.70;;;;;;5103758;28;20504;-78
2023/06/19 12:16:31;;;;;;;10.80;8.73;;;28.10;64.60;;;;;;5087079;28;20478;-79
2023/06/19 12:18:59;;;;;;;9.13;7.67;;;28.10;64.50;;;;;;5091846;28;20460;-79
2023/06/19 12:21:27;;;;;;;12.80;8.50;;;28.20;64.60;;;;;;5108366;28;20474;-78
2023/06/19 12:24:06;;;;;;;10.97;8.43;;;28.20;64.40;;;;;;5105330;28;21020;-79
2023/06/19 12:26:36;;;;;;;12.93;8.70;;;28.30;64.50;;;;;;5101917;28;20444;-79
2023/06/19 12:29:05;;;;;;;11.27;8.23;;;28.30;64.50;;;;;;5106822;28;20509;-79
2023/06/19 12:31:35;;;;;;;11.97;8.03;;;28.40;64.50;;;;;;5098149;28;20567;-78
2023/06/19 12:34:05;;;;;;;11.07;8.50;;;28.40;64.40;;;;;;5110839;28;20554;-79
2023/06/19 12:36:52;;;;;;;9.80;7.97;;;28.40;64.10;;;;;;5098488;28;21086;-78
2023/06/19 12:39:19;;;;;;;8.90;7.90;;;28.40;64.00;;;;;;5101975;28;20973;-79
2023/06/19 12:41:47;;;;;;;13.50;8.27;;;28.40;63.80;;;;;;5102509;28;20460;-79
2023/06/19 12:44:15;;;;;;;10.30;7.93;;;28.30;64.00;;;;;;5104430;28;20453;-78
2023/06/19 12:50:39;;;;;;;11.17;8.17;;;28.40;64.10;;;;;;5091152;28;20838;-78
2023/06/19 12:53:07;;;;;;;10.50;7.77;;;28.50;64.20;;;;;;5088415;28;20457;-77
2023/06/19 12:55:34;;;;;;;11.43;8.37;;;28.50;64.00;;;;;;5108803;28;20476;-80